COYOTE (LAKE MENDOCINO) (COY)

Elevation: 720' · RUSSIAN R basin · Operator: US Army Corps of Engineers

Provisional data, subject to change.
Query executed Tuesday at 23:51:10   clock

Select a sensor type for a plot of data.
Note: Reservoir Flows are daily averages.

Earlier

Date RES ELE    STORAGE    RES CHG    TOC STO    ABV TOC    OUTFLOW    INFLOW    PPT INC    TEMP MN    TEMP MX    EVP PAN   
 FEET   AF   AF   AF   AF   CFS   CFS   INCHES   DEG F   DEG F   INCHES  
08/03/2014 717.54 38083 -239 86370 -48287 166 61 0.00 14 37 0.33
08/04/2014 717.38 37870 -213 86370 -48500 164 65 0.00 13 31 0.19
08/05/2014 717.21 37645 -225 86370 -48725 161 51 0.00 18 25 0.08
08/06/2014 717.05 37434 -211 86370 -48936 158 64 0.00 18 35 0.28
08/07/2014 716.89 37224 -210 86370 -49146 155 63 0.00 16 37 0.30
08/08/2014 716.71 36988 -236 86370 -49382 155 49 0.00 14 35 0.29
08/09/2014 716.52 36740 -248 86370 -49630 152 39 0.00 13 36 0.29
08/10/2014 716.34 36505 -235 86370 -49865 148 43 0.00 12 33 0.30
08/11/2014 716.15 36259 -246 86370 -50111 148 39 0.00 12 36 0.33
08/12/2014 715.99 36052 -207 86370 -50318 144 49 0.00 13 28 0.22
08/13/2014 715.83 35845 -207 86370 -50525 144 51 0.00 12 29 0.24
08/14/2014 715.67 35639 -206 86370 -50731 145 53 0.00 12 35 0.28
08/15/2014 715.52 35447 -192 86370 -50923 144 60 0.00 14 36 0.28
08/16/2014 715.37 35255 -192 86370 -51115 144 61 0.00 13 37 0.30
08/17/2014 715.21 35050 -205 86370 -51320 148 58 0.00 13 37 0.29
08/18/2014 715.05 34847 -203 86370 -51523 152 62 0.00 14 36 0.29
08/19/2014 714.91 34669 -178 86370 -51701 150 72 0.00 13 34 0.27
08/20/2014 714.77 34492 -177 86370 -51878 144 65 0.00 14 29 0.23
08/21/2014 714.62 34302 -190 86370 -52068 141 56 0.00 14 34 0.26
08/22/2014 714.49 34138 -164 86370 -52232 138 67 0.00 14 31 0.27
08/23/2014 714.34 33950 -188 86370 -52420 138 54 0.00 13 34 0.27
08/24/2014 714.20 33774 -176 86370 -52596 138 60 0.00 13 32 0.25
08/25/2014 714.05 33586 -188 86370 -52784 135 50 0.00 13 29 0.23
08/26/2014 713.91 33412 -174 86370 -52958 122 45 0.00 13 34 0.26
08/27/2014 713.78 33250 -162 86370 -53120 122 52 0.00 13 38 0.27
08/28/2014 713.64 33075 -- 86370 -- 122 46 0.00 15 38 0.27
08/29/2014 713.50 32900 -175 86370 -53470 124 45 0.00 15 34 0.21
08/30/2014 713.32 32676 -224 86370 -53694 125 23 0.00 14 33 0.27
08/31/2014 713.18 32502 -174 86370 -53868 123 48 0.00 14 35 0.27
09/01/2014 713.03 32315 -187 86370 -54055 125 43 0.00 13 39 0.27
09/02/2014 -- -- -- -- -- -- -- -- -- -- --

Later | Latest

Warning! This data is preliminary and subject to revision.

Download Data Now Download Data Now | Show COY Map | Plot COY Data | 1 Month COY Data | Real-Time COY Data | COY Info